Ana Sayfa
METAR-TAF:

METAR-TAF

Havaalanları :

Narrandera, Avustralya

Enlem: 34-42-08S, Boylam: 146-30-44E, yükseklik: 144 m

Güncel hava durumu gözlemi

Rapor saat 08:00 UTC de 31 dakika önce yapıldı.
Rüzgar batı/güneybatıdan 10 kt
Sıcaklık 27°C
Nem 21%
Basınç 1011 hPa
Görüş mesafesi 10 km veya daha fazla

METAR: YNAR 140800Z AUTO 24010KT 9999 // NCD 27/03 Q1011

Saat: 19:31 (08:31 UTC)


TAF: eksik

4.000'den fazla havaalanı için hava durumu gözlemleri ve tahminleri (METAR ve TAF raporları).

Kullanılabilir istasyonlar harita üzerinde sarı ve kırmızı noktalarla gösterilir.

İstasyonun adını görmek için fareyi noktanın üzerinde gezdirin.

Sonrasında hava gözlem ve tahminlerini görmek için tıklayın.

Haritayı değiştirmek için: yaklaştırmak için siyah artı işaretli yeşil düğmeye ve uzaklaştırmak için de eksi işaretli düğmeye hızla tıklayın; bitişik haritalar için yeşil okları kullanın.


METAR-TAF: